GetGPSは位置情報をもとに「Hakodate, Hokkaido 042-0952, Japan (北緯41度46分31.81秒、東経140度48分56.88秒、位置: Japan, 〒042-0952 Hokkaido, Hakodate, Takamatsuchō, 511 函館空港)」付近のTweet(ツイート)を取得しました。現在地の取得は今すぐ「GetGPS」ボタンをクリック(またはタップ)!

GetGPS [Click or Tap]

translate:
latitude: 41.77550252330288
longitude: 140.81579879120048
links: PLINK  GMAP  OSM  HOME 
popularity:  Saku,殺害予告犯福寿洋輔容疑者(18)  Ōsaka-shi,俺(6)  大阪市,冷凍試着(5)  Sumida-ku(5)  Ōsaka-shi,ドリンク(4)  none(4)  Ashburn(4)  Ōsaka-shi,かわいそう(3)  Shinjuku City(3)  Shinjuku-ku,終わり(3)  Saitama(3)  Shinjuku-ku(2)  Shinjuku-ku,嶺生まや(2)  Independence(2)  none,#으라차차만수로(2)  none,#최병찬_재합류해(2)  Ashburn,"Chuck+Woolery"(2)  Ashburn,#7YearsOfFifthHarmony(2)  Ashburn,#BuildThatWall(2)  Ashburn,#OITNB(2)  Ashburn,#TuesdayThoughts(2)  Ashburn,Baker(2)  Ashburn,Conan(2)  Ashburn,Mine(2) 
函館空港   函館市   ソフトドリンク   北海道   フライト  
@rjch_metar
@nitchoque
@CHARL2k
@yo_su25
@noto
@kentbaystar
rjch_metar
RJCH METAR @rjch_metar
RJCH 220600Z 11017KT 9999 -SHRA FEW007 BKN010 BKN012 20/18 Q1010 (13分前)
rjch_metar
RJCH METAR @rjch_metar
RJCH 220500Z 10015KT 9999 -SHRA FEW008 BKN010 BKN012 20/18 Q1011 (43分前)
rjch_metar
RJCH METAR @rjch_metar
RJCH 220400Z 11019KT 9999 -SHRA FEW008 BKN012 BKN015 20/18 Q1011 (2時間前)
rjch_metar
RJCH METAR @rjch_metar
RJCH 220300Z 11019KT 9999 -SHRA FEW006 BKN010 BKN015 20/18 Q1011 (2時間前)
rjch_metar
RJCH METAR @rjch_metar
RJCH 220200Z 12019KT 9999 FEW007 BKN012 BKN020 20/18 Q1011 (4時間前)
rjch_metar
RJCH METAR @rjch_metar
RJCH 220100Z 12019KT 9999 -SHRA FEW004 BKN010 BKN015 20/18 Q1011 (4時間前)
nitchoque
フミ🍣 @nitchoque
函館空港のおみやげ屋さんなんだけど、めちゃかわいい🥰 場所: ANA 函館空港 - Hakodate Airport https://t.co/R3DaEWldrT (4時間前)
rjch_metar
RJCH METAR @rjch_metar
RJCH 220000Z 11017KT 9999 -SHRA FEW004 SCT008 BKN012 20/18 Q1011 (6時間前)
rjch_metar
RJCH METAR @rjch_metar
RJCH 212300Z 12018KT 9999 -SHRA FEW006 BKN010 BKN015 20/18 Q1011 (6時間前)
CHARL2k
ちゃーりーは湯に溶ける猫 @CHARL2k
I'm at 函館空港 in 函館市, 北海道 https://t.co/g1yngP9s2J (7時間前)
yo_su25
ヨース @yo_su25
I'm at 函館空港 in 函館市, 北海道 https://t.co/685tULhrK6 (7時間前)
rjch_metar
RJCH METAR @rjch_metar
RJCH 212229Z 12017KT 9999 -SHRA FEW005 SCT008 BKN012 20/18 Q1011 RMK 1ST005 4ST008 7ST012 A2988 (7時間前)
rjch_metar
RJCH METAR @rjch_metar
RJCH 212110Z 12018KT 9999 -SHRA FEW007 BKN010 BKN020 20/18 Q1011 RMK 1ST007 5ST010 7CU020 A2987 (9時間前)
rjch_metar
RJCH METAR @rjch_metar
RJCH 211715Z (cont.) TEMPO 2218/2300 3000 -SHRA BR FEW004 BKN006 (12時間前)
rjch_metar
RJCH METAR @rjch_metar
RJCH 211715Z 2118/2300 11015KT 9999 FEW008 BKN015 TEMPO 2118/2200 FEW005 BKN008 TEMPO 2209/2218 4000 -SHRA BR FEW005 BKN008 (cont.) (12時間前)
rjch_metar
RJCH METAR @rjch_metar
RJCH 211112Z (cont.) TEMPO 2209/2218 4000 -SHRA BR FEW004 BKN006 (13時間前)
rjch_metar
RJCH METAR @rjch_metar
RJCH 211112Z 2112/2218 10014KT 9999 FEW006 BKN015 TEMPO 2112/2200 3000 -SHRA BR FEW004 BKN006 TEMPO 2200/2209 FEW005 BKN008 (cont.) (13時間前)
rjch_metar
RJCH METAR @rjch_metar
RJCH 211100Z 10011KT 9999 FEW015 BKN020 BKN030 20/18 Q1012 (19時間前)
rjch_metar
RJCH METAR @rjch_metar
RJCH 211000Z 07009KT 9999 FEW015 SCT025 BKN040 20/18 Q1011 (19時間前)
noto
noto @noto
ただいまー (@ 函館空港 滑走路 in 函館市, 北海道) https://t.co/ssy39GeE4Y (20時間前)
kentbaystar
KENTベイ @kentbaystar
帰ってしまう… (@ 函館空港 in 函館市, 北海道) https://t.co/a5uhUHxCpG (20時間前)
rjch_metar
RJCH METAR @rjch_metar
RJCH 210900Z 09010KT 9999 FEW012 BKN020 BKN030 20/18 Q1011 (21時間前)
rjch_metar
RJCH METAR @rjch_metar
RJCH 210800Z 10010KT 9999 FEW012 SCT020 BKN030 20/18 Q1011 (22時間前)
rjch_metar
RJCH METAR @rjch_metar
RJCH 210700Z 08012KT 9999 FEW010 BKN015 BKN020 20/18 Q1011 (23時間前)
rjch_metar
RJCH METAR @rjch_metar
RJCH 210600Z 08010KT 9999 -SHRA FEW008 BKN012 BKN020 20/19 Q1011 (23時間前)
trends: 久しぶり(183949) #荒野巨人コラボ第3弾(32097) JKの匂い(23844) Loppi(10202) 甲子園の決勝(20630) 議会審議中(10302) DEOCO(14903) #徹子の部屋(18399) #パワプロキター(31077) 

Japan >  Hokkaido >  Hakodate

your IP: 35.173.234.237

©2019 PRNDC.COM

トップに戻る